sensor_id;sensor_type;location;lat;lon;timestamp;pressure;altitude;pressure_sealevel;temperature;humidity
74346;BME280;62776;50.518;6.732;2023-04-19T00:01:56;97333.69;;;10.36;100.00
74346;BME280;62776;50.518;6.732;2023-04-19T00:04:42;97334.56;;;10.35;100.00
74346;BME280;62776;50.518;6.732;2023-04-19T00:07:29;97325.88;;;10.34;100.00
74346;BME280;62776;50.518;6.732;2023-04-19T00:10:16;97324.16;;;10.36;100.00
74346;BME280;62776;50.518;6.732;2023-04-19T00:13:03;97321.56;;;10.32;100.00
74346;BME280;62776;50.518;6.732;2023-04-19T00:15:49;97321.56;;;10.32;100.00
74346;BME280;62776;50.518;6.732;2023-04-19T00:18:37;97322.41;;;10.29;100.00
74346;BME280;62776;50.518;6.732;2023-04-19T00:21:24;97323.28;;;10.27;100.00
74346;BME280;62776;50.518;6.732;2023-04-19T00:24:11;97319.78;;;10.28;100.00
74346;BME280;62776;50.518;6.732;2023-04-19T00:26:57;97321.53;;;10.29;100.00
74346;BME280;62776;50.518;6.732;2023-04-19T00:29:45;97321.53;;;10.29;100.00
74346;BME280;62776;50.518;6.732;2023-04-19T00:32:31;97313.75;;;10.29;100.00
74346;BME280;62776;50.518;6.732;2023-04-19T00:35:17;97317.22;;;10.29;100.00
74346;BME280;62776;50.518;6.732;2023-04-19T00:38:05;97322.41;;;10.26;100.00
74346;BME280;62776;50.518;6.732;2023-04-19T00:40:51;97319.78;;;10.28;100.00
74346;BME280;62776;50.518;6.732;2023-04-19T00:43:38;97312.88;;;10.25;100.00
74346;BME280;62776;50.518;6.732;2023-04-19T00:46:25;97323.25;;;10.24;100.00
74346;BME280;62776;50.518;6.732;2023-04-19T00:49:11;97308.53;;;10.23;100.00
74346;BME280;62776;50.518;6.732;2023-04-19T00:51:57;97313.72;;;10.23;100.00
74346;BME280;62776;50.518;6.732;2023-04-19T00:54:45;97317.19;;;10.23;100.00
74346;BME280;62776;50.518;6.732;2023-04-19T00:57:31;97320.66;;;10.24;100.00
74346;BME280;62776;50.518;6.732;2023-04-19T01:00:17;97312.84;;;10.21;100.00
74346;BME280;62776;50.518;6.732;2023-04-19T01:03:06;97301.59;;;10.19;100.00
74346;BME280;62776;50.518;6.732;2023-04-19T01:06:00;97305.06;;;10.18;100.00
74346;BME280;62776;50.518;6.732;2023-04-19T01:08:46;97297.28;;;10.16;100.00
74346;BME280;62776;50.518;6.732;2023-04-19T01:11:33;97295.50;;;10.17;100.00
74346;BME280;62776;50.518;6.732;2023-04-19T01:14:19;97298.13;;;10.15;100.00
74346;BME280;62776;50.518;6.732;2023-04-19T01:17:07;97306.78;;;10.13;100.00
74346;BME280;62776;50.518;6.732;2023-04-19T01:20:04;97304.09;;;10.00;100.00
74346;BME280;62776;50.518;6.732;2023-04-19T01:22:53;97296.31;;;10.11;100.00
74346;BME280;62776;50.518;6.732;2023-04-19T01:25:42;97296.31;;;10.08;100.00
74346;BME280;62776;50.518;6.732;2023-04-19T01:28:28;97288.53;;;10.06;100.00
74346;BME280;62776;50.518;6.732;2023-04-19T01:31:15;97284.19;;;10.08;100.00
74346;BME280;62776;50.518;6.732;2023-04-19T01:34:01;97288.53;;;10.09;100.00
74346;BME280;62776;50.518;6.732;2023-04-19T01:36:53;97279.00;;;10.08;100.00
74346;BME280;62776;50.518;6.732;2023-04-19T01:39:45;97284.19;;;10.08;100.00
74346;BME280;62776;50.518;6.732;2023-04-19T01:42:32;97275.56;;;10.09;100.00
74346;BME280;62776;50.518;6.732;2023-04-19T01:45:19;97276.41;;;10.07;100.00
74346;BME280;62776;50.518;6.732;2023-04-19T01:48:06;97279.88;;;10.07;100.00
74346;BME280;62776;50.518;6.732;2023-04-19T01:50:52;97277.25;;;10.06;100.00
74346;BME280;62776;50.518;6.732;2023-04-19T01:53:39;97275.56;;;10.05;100.00
74346;BME280;62776;50.518;6.732;2023-04-19T01:56:25;97267.72;;;10.00;100.00
74346;BME280;62776;50.518;6.732;2023-04-19T01:59:11;97267.72;;;10.00;100.00
74346;BME280;62776;50.518;6.732;2023-04-19T02:01:57;97264.25;;;9.98;100.00
74346;BME280;62776;50.518;6.732;2023-04-19T02:04:44;97269.47;;;9.98;100.00
74346;BME280;62776;50.518;6.732;2023-04-19T02:07:30;97266.88;;;9.97;100.00
74346;BME280;62776;50.518;6.732;2023-04-19T02:10:19;97265.09;;;9.94;100.00
74346;BME280;62776;50.518;6.732;2023-04-19T02:13:05;97263.38;;;9.98;100.00
74346;BME280;62776;50.518;6.732;2023-04-19T02:15:51;97266.00;;;9.99;100.00
74346;BME280;62776;50.518;6.732;2023-04-19T02:18:37;97259.06;;;9.98;100.00
74346;BME280;62776;50.518;6.732;2023-04-19T02:21:24;97257.34;;;9.99;100.00
74346;BME280;62776;50.518;6.732;2023-04-19T02:24:11;97256.47;;;9.98;100.00
74346;BME280;62776;50.518;6.732;2023-04-19T02:26:58;97256.47;;;9.97;100.00
74346;BME280;62776;50.518;6.732;2023-04-19T02:29:44;97254.72;;;9.97;100.00
74346;BME280;62776;50.518;6.732;2023-04-19T02:32:30;97255.59;;;9.93;100.00
74346;BME280;62776;50.518;6.732;2023-04-19T02:35:16;97252.97;;;9.90;100.00
74346;BME280;62776;50.518;6.732;2023-04-19T02:38:03;97255.56;;;9.86;100.00
74346;BME280;62776;50.518;6.732;2023-04-19T02:40:50;97255.56;;;9.84;100.00
74346;BME280;62776;50.518;6.732;2023-04-19T02:43:37;97258.13;;;9.78;100.00
74346;BME280;62776;50.518;6.732;2023-04-19T02:46:23;97261.56;;;9.73;100.00
74346;BME280;62776;50.518;6.732;2023-04-19T02:49:09;97260.69;;;9.69;100.00
74346;BME280;62776;50.518;6.732;2023-04-19T02:51:55;97258.91;;;9.62;100.00
74346;BME280;62776;50.518;6.732;2023-04-19T02:54:42;97255.47;;;9.60;100.00
74346;BME280;62776;50.518;6.732;2023-04-19T02:57:28;97260.63;;;9.57;100.00
74346;BME280;62776;50.518;6.732;2023-04-19T03:00:14;97264.06;;;9.50;100.00
74346;BME280;62776;50.518;6.732;2023-04-19T03:03:01;97254.53;;;9.44;100.00
74346;BME280;62776;50.518;6.732;2023-04-19T03:05:49;97256.16;;;9.27;100.00
74346;BME280;62776;50.518;6.732;2023-04-19T03:08:42;97245.72;;;9.18;100.00
74346;BME280;62776;50.518;6.732;2023-04-19T03:11:28;97246.50;;;9.07;100.00
74346;BME280;62776;50.518;6.732;2023-04-19T03:14:14;97245.56;;;8.99;100.00
74346;BME280;62776;50.518;6.732;2023-04-19T03:17:00;97246.38;;;8.90;100.00
74346;BME280;62776;50.518;6.732;2023-04-19T03:19:46;97247.19;;;8.80;100.00
74346;BME280;62776;50.518;6.732;2023-04-19T03:22:32;97246.25;;;8.72;100.00
74346;BME280;62776;50.518;6.732;2023-04-19T03:25:19;97243.63;;;8.67;100.00
74346;BME280;62776;50.518;6.732;2023-04-19T03:28:05;97241.88;;;8.66;100.00
74346;BME280;62776;50.518;6.732;2023-04-19T03:30:51;97247.03;;;8.62;100.00
74346;BME280;62776;50.518;6.732;2023-04-19T03:33:39;97245.28;;;8.59;100.00
74346;BME280;62776;50.518;6.732;2023-04-19T03:36:25;97244.47;;;8.65;100.00
74346;BME280;62776;50.518;6.732;2023-04-19T03:39:16;97231.53;;;8.66;100.00
74346;BME280;62776;50.518;6.732;2023-04-19T03:42:03;97239.34;;;8.72;100.00
74346;BME280;62776;50.518;6.732;2023-04-19T03:44:49;97235.91;;;8.75;100.00
74346;BME280;62776;50.518;6.732;2023-04-19T03:47:36;97242.00;;;8.80;100.00
74346;BME280;62776;50.518;6.732;2023-04-19T03:50:23;97238.59;;;8.84;100.00
74346;BME280;62776;50.518;6.732;2023-04-19T03:53:10;97242.91;;;8.86;100.00
74346;BME280;62776;50.518;6.732;2023-04-19T03:55:57;97239.44;;;8.87;100.00
74346;BME280;62776;50.518;6.732;2023-04-19T03:58:46;97228.22;;;8.90;100.00
74346;BME280;62776;50.518;6.732;2023-04-19T04:01:32;97232.59;;;8.94;100.00
74346;BME280;62776;50.518;6.732;2023-04-19T04:04:18;97227.41;;;8.96;100.00
74346;BME280;62776;50.518;6.732;2023-04-19T04:07:04;97230.03;;;9.00;100.00
74346;BME280;62776;50.518;6.732;2023-04-19T04:09:51;97230.06;;;9.03;100.00
74346;BME280;62776;50.518;6.732;2023-04-19T04:12:37;97235.25;;;9.05;100.00
74346;BME280;62776;50.518;6.732;2023-04-19T04:15:23;97249.09;;;9.07;100.00
74346;BME280;62776;50.518;6.732;2023-04-19T04:18:20;97237.88;;;9.08;100.00
74346;BME280;62776;50.518;6.732;2023-04-19T04:21:06;97231.84;;;9.09;100.00
74346;BME280;62776;50.518;6.732;2023-04-19T04:23:52;97246.50;;;9.07;100.00
74346;BME280;62776;50.518;6.732;2023-04-19T04:26:39;97246.53;;;9.11;100.00
74346;BME280;62776;50.518;6.732;2023-04-19T04:29:27;97246.53;;;9.13;100.00
74346;BME280;62776;50.518;6.732;2023-04-19T04:32:14;97243.06;;;9.11;100.00
74346;BME280;62776;50.518;6.732;2023-04-19T04:35:03;97235.28;;;9.09;100.00
74346;BME280;62776;50.518;6.732;2023-04-19T04:37:51;97243.94;;;9.11;100.00
74346;BME280;62776;50.518;6.732;2023-04-19T04:40:38;97248.25;;;9.08;100.00
74346;BME280;62776;50.518;6.732;2023-04-19T04:43:25;97252.53;;;9.04;100.00
74346;BME280;62776;50.518;6.732;2023-04-19T04:46:14;97252.56;;;9.06;100.00
74346;BME280;62776;50.518;6.732;2023-04-19T04:49:01;97256.91;;;9.08;100.00
74346;BME280;62776;50.518;6.732;2023-04-19T04:51:47;97253.44;;;9.11;100.00
74346;BME280;62776;50.518;6.732;2023-04-19T04:54:33;97253.44;;;9.11;100.00
74346;BME280;62776;50.518;6.732;2023-04-19T04:57:21;97256.00;;;9.09;100.00
74346;BME280;62776;50.518;6.732;2023-04-19T05:00:08;97258.63;;;9.11;100.00
74346;BME280;62776;50.518;6.732;2023-04-19T05:02:54;97256.91;;;9.13;100.00
74346;BME280;62776;50.518;6.732;2023-04-19T05:05:41;97255.19;;;9.13;100.00
74346;BME280;62776;50.518;6.732;2023-04-19T05:08:28;97256.06;;;9.14;100.00
74346;BME280;62776;50.518;6.732;2023-04-19T05:11:14;97252.66;;;9.19;100.00
74346;BME280;62776;50.518;6.732;2023-04-19T05:14:03;97250.91;;;9.18;100.00
74346;BME280;62776;50.518;6.732;2023-04-19T05:16:50;97252.63;;;9.16;100.00
74346;BME280;62776;50.518;6.732;2023-04-19T05:19:36;97246.59;;;9.17;100.00
74346;BME280;62776;50.518;6.732;2023-04-19T07:44:15;97226.06;;;9.70;100.00
74346;BME280;62776;50.518;6.732;2023-04-19T07:47:02;97231.34;;;9.85;100.00
74346;BME280;62776;50.518;6.732;2023-04-19T07:49:54;97227.06;;;10.10;100.00
74346;BME280;62776;50.518;6.732;2023-04-19T07:52:41;97221.09;;;10.37;100.00
74346;BME280;62776;50.518;6.732;2023-04-19T07:55:39;97224.56;;;10.54;100.00
74346;BME280;62776;50.518;6.732;2023-04-19T07:58:26;97220.22;;;10.66;100.00
74346;BME280;62776;50.518;6.732;2023-04-19T08:01:12;97217.63;;;10.80;100.00
74346;BME280;62776;50.518;6.732;2023-04-19T08:03:59;97215.91;;;10.93;100.00
74346;BME280;62776;50.518;6.732;2023-04-19T08:06:45;97209.81;;;11.01;100.00
74346;BME280;62776;50.518;6.732;2023-04-19T08:09:34;97218.44;;;11.11;100.00
74346;BME280;62776;50.518;6.732;2023-04-19T08:12:20;97212.38;;;11.22;100.00
74346;BME280;62776;50.518;6.732;2023-04-19T08:15:08;97208.91;;;11.20;100.00
74346;BME280;62776;50.518;6.732;2023-04-19T08:17:54;97201.97;;;11.22;100.00
74346;BME280;62776;50.518;6.732;2023-04-19T08:20:42;97201.88;;;11.41;100.00
74346;BME280;62776;50.518;6.732;2023-04-19T08:23:28;97194.09;;;11.45;100.00
74346;BME280;62776;50.518;6.732;2023-04-19T08:26:14;97190.59;;;11.51;100.00
74346;BME280;62776;50.518;6.732;2023-04-19T08:29:01;97199.22;;;11.60;100.00
74346;BME280;62776;50.518;6.732;2023-04-19T08:31:47;97184.44;;;11.74;100.00
74346;BME280;62776;50.518;6.732;2023-04-19T08:34:36;97182.63;;;11.84;100.00
74346;BME280;62776;50.518;6.732;2023-04-19T08:37:35;97182.50;;;12.07;100.00
74346;BME280;62776;50.518;6.732;2023-04-19T08:40:22;97190.25;;;12.17;100.00
74346;BME280;62776;50.518;6.732;2023-04-19T08:43:12;97187.59;;;12.29;100.00
74346;BME280;62776;50.518;6.732;2023-04-19T08:45:58;97183.19;;;12.37;100.00
74346;BME280;62776;50.518;6.732;2023-04-19T08:52:26;97181.34;;;12.47;100.00
74346;BME280;62776;50.518;6.732;2023-04-19T08:55:14;97186.66;;;12.38;100.00
74346;BME280;62776;50.518;6.732;2023-04-19T08:58:04;97180.56;;;12.37;100.00
74346;BME280;62776;50.518;6.732;2023-04-19T09:00:50;97173.50;;;12.52;100.00
74346;BME280;62776;50.518;6.732;2023-04-19T09:03:42;97174.25;;;12.64;100.00
74346;BME280;62776;50.518;6.732;2023-04-19T09:06:38;97171.53;;;12.78;100.00
74346;BME280;62776;50.518;6.732;2023-04-19T09:09:29;97181.16;;;12.73;100.00
74346;BME280;62776;50.518;6.732;2023-04-19T09:12:18;97183.75;;;12.73;100.00
74346;BME280;62776;50.518;6.732;2023-04-19T09:15:06;97177.44;;;12.96;100.00
74346;BME280;62776;50.518;6.732;2023-04-19T09:18:05;97174.53;;;13.28;100.00
74346;BME280;62776;50.518;6.732;2023-04-19T09:21:00;97176.09;;;13.44;100.00
74346;BME280;62776;50.518;6.732;2023-04-19T09:23:47;97172.53;;;13.51;100.00
74346;BME280;62776;50.518;6.732;2023-04-19T09:26:35;97167.50;;;13.36;98.04
74346;BME280;62776;50.518;6.732;2023-04-19T09:29:22;97181.25;;;13.50;100.00
74346;BME280;62776;50.518;6.732;2023-04-19T09:32:09;97175.97;;;13.56;96.61
74346;BME280;62776;50.518;6.732;2023-04-19T09:34:58;97168.75;;;13.74;95.35
74346;BME280;62776;50.518;6.732;2023-04-19T09:38:00;97168.72;;;13.77;93.84
74346;BME280;62776;50.518;6.732;2023-04-19T09:40:46;97154.66;;;13.87;92.79
74346;BME280;62776;50.518;6.732;2023-04-19T09:43:38;97154.53;;;13.96;95.25
74346;BME280;62776;50.518;6.732;2023-04-19T09:46:35;97159.25;;;13.70;87.80
74346;BME280;62776;50.518;6.732;2023-04-19T09:49:23;97140.84;;;13.79;91.99
74346;BME280;62776;50.518;6.732;2023-04-19T09:52:13;97143.16;;;13.98;90.30
74346;BME280;62776;50.518;6.732;2023-04-19T09:55:07;97137.09;;;13.98;84.62
74346;BME280;62776;50.518;6.732;2023-04-19T09:57:54;97136.22;;;13.96;82.89
74346;BME280;62776;50.518;6.732;2023-04-19T10:00:44;97138.84;;;13.96;86.66
74346;BME280;62776;50.518;6.732;2023-04-19T10:03:38;97138.03;;;13.91;83.51
74346;BME280;62776;50.518;6.732;2023-04-19T10:06:24;97135.53;;;13.82;83.06
74346;BME280;62776;50.518;6.732;2023-04-19T10:09:13;97147.03;;;13.72;82.06
74346;BME280;62776;50.518;6.732;2023-04-19T10:12:00;97144.47;;;13.66;81.61
74346;BME280;62776;50.518;6.732;2023-04-19T10:14:48;97141.00;;;13.67;83.07
74346;BME280;62776;50.518;6.732;2023-04-19T10:17:37;97139.53;;;13.44;82.70
74346;BME280;62776;50.518;6.732;2023-04-19T10:20:29;97135.94;;;13.51;84.30
74346;BME280;62776;50.518;6.732;2023-04-19T10:23:18;97128.00;;;13.62;85.19
74346;BME280;62776;50.518;6.732;2023-04-19T10:26:07;97136.69;;;13.63;85.67
74346;BME280;62776;50.518;6.732;2023-04-19T10:28:55;97130.13;;;13.31;82.34
74346;BME280;62776;50.518;6.732;2023-04-19T10:31:43;97122.72;;;12.89;85.12
74346;BME280;62776;50.518;6.732;2023-04-19T10:34:36;97123.06;;;12.53;90.57
74346;BME280;62776;50.518;6.732;2023-04-19T10:37:31;97121.00;;;12.89;84.07
74346;BME280;62776;50.518;6.732;2023-04-19T10:43:39;97117.88;;;13.36;88.21
74346;BME280;62776;50.518;6.732;2023-04-19T10:49:14;97116.66;;;13.63;81.24
74346;BME280;62776;50.518;6.732;2023-04-19T10:52:01;97111.28;;;13.75;80.49
74346;BME280;62776;50.518;6.732;2023-04-19T10:54:55;97106.06;;;13.74;76.66
74346;BME280;62776;50.518;6.732;2023-04-19T10:58:02;97101.00;;;13.62;73.64
74346;BME280;62776;50.518;6.732;2023-04-19T11:00:59;97090.22;;;13.86;76.35
74346;BME280;62776;50.518;6.732;2023-04-19T11:03:59;97082.09;;;14.04;75.92
74346;BME280;62776;50.518;6.732;2023-04-19T11:09:44;97083.03;;;14.00;68.03
74346;BME280;62776;50.518;6.732;2023-04-19T11:12:31;97078.06;;;13.82;67.12
74346;BME280;62776;50.518;6.732;2023-04-19T11:15:22;97065.91;;;13.81;65.49
74346;BME280;62776;50.518;6.732;2023-04-19T11:18:17;97065.78;;;13.90;62.77
74346;BME280;62776;50.518;6.732;2023-04-19T11:21:05;97063.66;;;14.13;62.08
74346;BME280;62776;50.518;6.732;2023-04-19T11:24:08;97061.13;;;14.08;60.95
74346;BME280;62776;50.518;6.732;2023-04-19T11:27:00;97060.06;;;14.20;58.60
74346;BME280;62776;50.518;6.732;2023-04-19T11:29:54;97054.28;;;14.00;57.03
74346;BME280;62776;50.518;6.732;2023-04-19T11:32:49;97057.75;;;14.00;55.15
74346;BME280;62776;50.518;6.732;2023-04-19T11:35:43;97048.22;;;13.98;54.78
74346;BME280;62776;50.518;6.732;2023-04-19T11:38:30;97040.22;;;14.07;55.89
74346;BME280;62776;50.518;6.732;2023-04-19T11:41:18;97042.88;;;14.04;56.91
74346;BME280;62776;50.518;6.732;2023-04-19T11:44:17;97040.56;;;13.86;59.35
74346;BME280;62776;50.518;6.732;2023-04-19T11:47:06;97038.97;;;14.29;58.27
74346;BME280;62776;50.518;6.732;2023-04-19T11:49:56;97036.97;;;14.46;57.75
74346;BME280;62776;50.518;6.732;2023-04-19T11:52:48;97023.84;;;14.49;57.21
74346;BME280;62776;50.518;6.732;2023-04-19T11:55:34;97027.72;;;14.74;56.66
74346;BME280;62776;50.518;6.732;2023-04-19T11:58:30;97018.34;;;14.61;53.25
74346;BME280;62776;50.518;6.732;2023-04-19T12:01:20;97012.19;;;14.65;54.20
74346;BME280;62776;50.518;6.732;2023-04-19T12:04:07;97007.63;;;14.76;55.08
74346;BME280;62776;50.518;6.732;2023-04-19T12:06:57;97013.56;;;14.85;52.15
74346;BME280;62776;50.518;6.732;2023-04-19T12:09:48;97008.28;;;14.88;51.98
74346;BME280;62776;50.518;6.732;2023-04-19T12:12:35;97002.69;;;15.04;51.17
74346;BME280;62776;50.518;6.732;2023-04-19T12:15:21;97010.63;;;15.00;48.44
74346;BME280;62776;50.518;6.732;2023-04-19T12:18:07;96989.75;;;14.97;48.49
74346;BME280;62776;50.518;6.732;2023-04-19T12:20:54;96998.25;;;15.08;50.10
74346;BME280;62776;50.518;6.732;2023-04-19T12:23:46;96998.97;;;15.16;49.95
74346;BME280;62776;50.518;6.732;2023-04-19T12:26:54;96998.41;;;15.00;47.67
74346;BME280;62776;50.518;6.732;2023-04-19T12:29:42;97001.28;;;14.87;47.18
74346;BME280;62776;50.518;6.732;2023-04-19T12:32:29;96997.31;;;14.67;48.26
74346;BME280;62776;50.518;6.732;2023-04-19T12:35:15;97003.41;;;14.68;51.58
74346;BME280;62776;50.518;6.732;2023-04-19T12:38:01;97000.56;;;14.80;51.17
74346;BME280;62776;50.518;6.732;2023-04-19T12:40:48;96990.59;;;14.99;51.80
74346;BME280;62776;50.518;6.732;2023-04-19T12:43:34;96988.69;;;15.05;49.05
74346;BME280;62776;50.518;6.732;2023-04-19T12:46:21;96977.78;;;15.25;48.91
74346;BME280;62776;50.518;6.732;2023-04-19T12:49:07;96972.19;;;15.42;49.06
74346;BME280;62776;50.518;6.732;2023-04-19T12:51:53;96975.66;;;15.42;49.74
74346;BME280;62776;50.518;6.732;2023-04-19T12:54:41;96977.31;;;15.49;50.21
74346;BME280;62776;50.518;6.732;2023-04-19T12:57:27;96974.78;;;15.43;49.35
74346;BME280;62776;50.518;6.732;2023-04-19T13:00:13;96966.00;;;15.46;50.05
74346;BME280;62776;50.518;6.732;2023-04-19T13:03:01;96965.69;;;15.59;49.74
74346;BME280;62776;50.518;6.732;2023-04-19T13:05:49;96966.84;;;15.84;49.98
74346;BME280;62776;50.518;6.732;2023-04-19T13:08:39;96960.09;;;15.74;45.76
74346;BME280;62776;50.518;6.732;2023-04-19T13:11:25;96953.00;;;15.78;48.62
74346;BME280;62776;50.518;6.732;2023-04-19T13:14:11;96961.22;;;15.64;50.69
74346;BME280;62776;50.518;6.732;2023-04-19T13:16:59;96962.34;;;15.54;49.24
74346;BME280;62776;50.518;6.732;2023-04-19T13:19:46;96948.25;;;15.58;49.43
74346;BME280;62776;50.518;6.732;2023-04-19T13:22:32;96946.22;;;15.69;51.03
74346;BME280;62776;50.518;6.732;2023-04-19T13:25:21;96936.75;;;15.65;47.61
74346;BME280;62776;50.518;6.732;2023-04-19T13:28:07;96937.50;;;15.69;46.95
74346;BME280;62776;50.518;6.732;2023-04-19T13:31:00;96940.09;;;15.70;48.48
74346;BME280;62776;50.518;6.732;2023-04-19T13:33:53;96931.72;;;15.55;45.04
74346;BME280;62776;50.518;6.732;2023-04-19T13:36:49;96934.25;;;15.21;45.68
74346;BME280;62776;50.518;6.732;2023-04-19T13:39:36;96937.00;;;15.15;43.57
74346;BME280;62776;50.518;6.732;2023-04-19T13:42:23;96929.75;;;15.26;45.97
74346;BME280;62776;50.518;6.732;2023-04-19T13:45:12;96934.75;;;15.36;43.04
74346;BME280;62776;50.518;6.732;2023-04-19T13:48:01;96926.53;;;15.53;41.85
74346;BME280;62776;50.518;6.732;2023-04-19T13:50:47;96934.06;;;15.67;41.01
74346;BME280;62776;50.518;6.732;2023-04-19T13:53:41;96924.06;;;15.82;40.31
74346;BME280;62776;50.518;6.732;2023-04-19T13:56:27;96916.47;;;16.38;40.90
74346;BME280;62776;50.518;6.732;2023-04-19T13:59:16;96926.78;;;16.78;39.11
74346;BME280;62776;50.518;6.732;2023-04-19T14:02:03;96911.78;;;17.10;39.64
74346;BME280;62776;50.518;6.732;2023-04-19T14:04:51;96907.75;;;17.56;36.71
74346;BME280;62776;50.518;6.732;2023-04-19T14:07:42;96903.25;;;18.37;34.38
74346;BME280;62776;50.518;6.732;2023-04-19T14:10:30;96901.38;;;18.65;31.69
74346;BME280;62776;50.518;6.732;2023-04-19T14:13:17;96905.53;;;18.95;32.04
74346;BME280;62776;50.518;6.732;2023-04-19T14:16:04;96899.78;;;19.52;31.51
74346;BME280;62776;50.518;6.732;2023-04-19T14:18:50;96900.75;;;19.93;30.77
74346;BME280;62776;50.518;6.732;2023-04-19T14:21:37;96895.22;;;20.19;30.25
74346;BME280;62776;50.518;6.732;2023-04-19T14:24:23;96892.69;;;20.77;31.09
74346;BME280;62776;50.518;6.732;2023-04-19T14:27:09;96888.34;;;21.14;30.41
74346;BME280;62776;50.518;6.732;2023-04-19T14:29:56;96877.66;;;21.35;30.19
74346;BME280;62776;50.518;6.732;2023-04-19T14:32:44;96878.63;;;21.69;28.27
74346;BME280;62776;50.518;6.732;2023-04-19T14:35:30;96874.00;;;21.92;27.81
74346;BME280;62776;50.518;6.732;2023-04-19T14:38:16;96880.38;;;21.88;28.24
74346;BME280;62776;50.518;6.732;2023-04-19T14:41:08;96880.50;;;21.85;26.89
74346;BME280;62776;50.518;6.732;2023-04-19T14:43:56;96869.34;;;21.97;27.43
74346;BME280;62776;50.518;6.732;2023-04-19T14:46:43;96869.09;;;22.36;25.60
74346;BME280;62776;50.518;6.732;2023-04-19T14:49:29;96855.91;;;21.83;25.67
74346;BME280;62776;50.518;6.732;2023-04-19T14:52:20;96859.53;;;21.63;27.00
74346;BME280;62776;50.518;6.732;2023-04-19T14:55:08;96843.75;;;21.78;26.43
74346;BME280;62776;50.518;6.732;2023-04-19T14:57:54;96852.59;;;21.25;28.20
74346;BME280;62776;50.518;6.732;2023-04-19T15:00:43;96861.19;;;21.83;26.41
74346;BME280;62776;50.518;6.732;2023-04-19T15:03:30;96854.19;;;21.82;25.41
74346;BME280;62776;50.518;6.732;2023-04-19T15:06:18;96852.34;;;20.34;26.44
74346;BME280;62776;50.518;6.732;2023-04-19T15:09:05;96837.84;;;20.24;26.90
74346;BME280;62776;50.518;6.732;2023-04-19T15:11:52;96856.88;;;18.57;30.05
74346;BME280;62776;50.518;6.732;2023-04-19T15:14:39;96841.75;;;18.14;29.28
74346;BME280;62776;50.518;6.732;2023-04-19T15:17:34;96838.31;;;18.37;30.00
74346;BME280;62776;50.518;6.732;2023-04-19T15:20:27;96853.69;;;17.20;31.63
74346;BME280;62776;50.518;6.732;2023-04-19T15:23:15;96849.38;;;16.89;31.17
74346;BME280;62776;50.518;6.732;2023-04-19T15:26:04;96853.66;;;16.32;32.96
74346;BME280;62776;50.518;6.732;2023-04-19T15:29:00;96853.34;;;15.44;32.38
74346;BME280;62776;50.518;6.732;2023-04-19T15:31:59;96851.97;;;14.93;33.29
74346;BME280;62776;50.518;6.732;2023-04-19T15:34:47;96858.16;;;14.49;34.19
74346;BME280;62776;50.518;6.732;2023-04-19T15:37:34;96864.59;;;14.31;34.82
74346;BME280;62776;50.518;6.732;2023-04-19T15:40:21;96861.28;;;14.23;35.30
74346;BME280;62776;50.518;6.732;2023-04-19T15:43:09;96862.41;;;14.11;35.29
74346;BME280;62776;50.518;6.732;2023-04-19T15:45:58;96863.44;;;14.01;36.01
74346;BME280;62776;50.518;6.732;2023-04-19T15:48:47;96854.31;;;13.76;34.71
74346;BME280;62776;50.518;6.732;2023-04-19T15:51:34;96854.50;;;13.66;36.52
74346;BME280;62776;50.518;6.732;2023-04-19T15:54:22;96863.63;;;13.42;34.43
74346;BME280;62776;50.518;6.732;2023-04-19T15:57:08;96846.47;;;13.27;34.93
74346;BME280;62776;50.518;6.732;2023-04-19T15:59:54;96857.88;;;13.22;35.50
74346;BME280;62776;50.518;6.732;2023-04-19T16:02:42;96858.06;;;13.10;35.35
74346;BME280;62776;50.518;6.732;2023-04-19T16:05:30;96852.91;;;13.02;34.66
74346;BME280;62776;50.518;6.732;2023-04-19T16:08:17;96859.91;;;13.00;35.31
74346;BME280;62776;50.518;6.732;2023-04-19T16:11:05;96859.19;;;12.90;35.60
74346;BME280;62776;50.518;6.732;2023-04-19T16:13:51;96867.09;;;12.84;35.64
74346;BME280;62776;50.518;6.732;2023-04-19T16:16:39;96867.31;;;12.69;34.89
74346;BME280;62776;50.518;6.732;2023-04-19T16:19:27;96877.84;;;12.62;36.01
74346;BME280;62776;50.518;6.732;2023-04-19T16:22:13;96878.66;;;12.68;36.53
74346;BME280;62776;50.518;6.732;2023-04-19T16:24:59;96860.22;;;12.79;35.30
74346;BME280;62776;50.518;6.732;2023-04-19T16:27:46;96859.53;;;12.68;35.43
74346;BME280;62776;50.518;6.732;2023-04-19T16:30:34;96870.09;;;12.57;35.88
74346;BME280;62776;50.518;6.732;2023-04-19T16:33:21;96869.31;;;12.52;35.80
74346;BME280;62776;50.518;6.732;2023-04-19T16:36:07;96879.81;;;12.44;36.54
74346;BME280;62776;50.518;6.732;2023-04-19T16:38:55;96864.00;;;12.57;37.24
74346;BME280;62776;50.518;6.732;2023-04-19T16:41:42;96873.63;;;12.53;37.39
74346;BME280;62776;50.518;6.732;2023-04-19T16:44:29;96868.53;;;12.42;37.74
74346;BME280;62776;50.518;6.732;2023-04-19T16:47:16;96876.47;;;12.33;36.82
74346;BME280;62776;50.518;6.732;2023-04-19T16:50:03;96870.41;;;12.31;36.46
74346;BME280;62776;50.518;6.732;2023-04-19T16:52:51;96868.56;;;12.41;37.74
74346;BME280;62776;50.518;6.732;2023-04-19T16:55:37;96865.94;;;12.44;37.42
74346;BME280;62776;50.518;6.732;2023-04-19T16:58:31;96865.34;;;12.21;37.05
74346;BME280;62776;50.518;6.732;2023-04-19T17:01:18;96870.69;;;12.10;37.59
74346;BME280;62776;50.518;6.732;2023-04-19T17:04:05;96865.59;;;11.98;37.35
74346;BME280;62776;50.518;6.732;2023-04-19T17:06:52;96863.91;;;11.94;38.33
74346;BME280;62776;50.518;6.732;2023-04-19T17:09:40;96870.06;;;11.84;38.34
74346;BME280;62776;50.518;6.732;2023-04-19T17:12:26;96864.09;;;11.73;37.83
74346;BME280;62776;50.518;6.732;2023-04-19T17:15:14;96863.28;;;11.65;37.94
74346;BME280;62776;50.518;6.732;2023-04-19T17:18:00;96865.06;;;11.63;38.81
74346;BME280;62776;50.518;6.732;2023-04-19T17:20:47;96870.31;;;11.57;38.12
74346;BME280;62776;50.518;6.732;2023-04-19T17:23:34;96863.41;;;11.53;37.95